sensor_id;sensor_type;location;lat;lon;timestamp;temperature;humidity
55648;DHT22;45266;48.756;9.246;2023-08-01T00:00:37;17.30;99.90
55648;DHT22;45266;48.756;9.246;2023-08-01T00:01:47;17.30;99.90
55648;DHT22;45266;48.756;9.246;2023-08-01T00:02:52;17.30;99.90
55648;DHT22;45266;48.756;9.246;2023-08-01T00:03:54;17.30;99.90
55648;DHT22;45266;48.756;9.246;2023-08-01T00:04:56;17.30;99.90
55648;DHT22;45266;48.756;9.246;2023-08-01T00:06:00;17.20;99.90
55648;DHT22;45266;48.756;9.246;2023-08-01T00:07:09;17.20;99.90
55648;DHT22;45266;48.756;9.246;2023-08-01T00:08:14;17.20;99.90
55648;DHT22;45266;48.756;9.246;2023-08-01T00:09:23;17.20;99.90
55648;DHT22;45266;48.756;9.246;2023-08-01T00:10:33;17.20;99.90
55648;DHT22;45266;48.756;9.246;2023-08-01T00:11:38;17.20;99.90
55648;DHT22;45266;48.756;9.246;2023-08-01T00:12:41;17.20;99.90
55648;DHT22;45266;48.756;9.246;2023-08-01T00:13:43;17.20;99.90
55648;DHT22;45266;48.756;9.246;2023-08-01T00:14:45;17.20;99.90
55648;DHT22;45266;48.756;9.246;2023-08-01T00:15:49;17.20;99.90
55648;DHT22;45266;48.756;9.246;2023-08-01T00:17:08;17.20;99.90
55648;DHT22;45266;48.756;9.246;2023-08-01T00:18:12;17.20;99.90
55648;DHT22;45266;48.756;9.246;2023-08-01T00:19:25;17.10;99.90
55648;DHT22;45266;48.756;9.246;2023-08-01T00:20:29;17.10;99.90
55648;DHT22;45266;48.756;9.246;2023-08-01T00:21:31;17.20;99.90
55648;DHT22;45266;48.756;9.246;2023-08-01T00:22:35;17.20;99.90
55648;DHT22;45266;48.756;9.246;2023-08-01T00:23:41;17.20;99.90
55648;DHT22;45266;48.756;9.246;2023-08-01T00:24:46;17.20;99.90
55648;DHT22;45266;48.756;9.246;2023-08-01T00:25:51;17.20;99.90
55648;DHT22;45266;48.756;9.246;2023-08-01T00:26:53;17.20;99.90
55648;DHT22;45266;48.756;9.246;2023-08-01T00:27:58;17.20;99.90
55648;DHT22;45266;48.756;9.246;2023-08-01T00:29:00;17.20;99.90
55648;DHT22;45266;48.756;9.246;2023-08-01T00:30:03;17.20;99.90
55648;DHT22;45266;48.756;9.246;2023-08-01T00:31:06;17.20;99.90
55648;DHT22;45266;48.756;9.246;2023-08-01T00:32:11;17.20;99.90
55648;DHT22;45266;48.756;9.246;2023-08-01T00:33:14;17.20;99.90
55648;DHT22;45266;48.756;9.246;2023-08-01T00:34:17;17.20;99.90
55648;DHT22;45266;48.756;9.246;2023-08-01T00:35:19;17.30;99.90
55648;DHT22;45266;48.756;9.246;2023-08-01T00:36:21;17.20;99.90
55648;DHT22;45266;48.756;9.246;2023-08-01T00:37:23;17.30;99.90
55648;DHT22;45266;48.756;9.246;2023-08-01T00:38:27;17.30;99.90
55648;DHT22;45266;48.756;9.246;2023-08-01T00:39:31;17.30;99.90
55648;DHT22;45266;48.756;9.246;2023-08-01T00:40:37;17.30;99.90
55648;DHT22;45266;48.756;9.246;2023-08-01T00:41:40;17.30;99.90
55648;DHT22;45266;48.756;9.246;2023-08-01T00:42:42;17.30;99.90
55648;DHT22;45266;48.756;9.246;2023-08-01T00:43:48;17.30;99.90
55648;DHT22;45266;48.756;9.246;2023-08-01T00:44:54;17.40;99.90
55648;DHT22;45266;48.756;9.246;2023-08-01T00:46:00;17.30;99.90
55648;DHT22;45266;48.756;9.246;2023-08-01T00:47:05;17.30;99.90
55648;DHT22;45266;48.756;9.246;2023-08-01T00:48:08;17.40;99.90
55648;DHT22;45266;48.756;9.246;2023-08-01T00:49:10;17.30;99.90
55648;DHT22;45266;48.756;9.246;2023-08-01T00:50:12;17.40;99.90
55648;DHT22;45266;48.756;9.246;2023-08-01T00:51:15;17.40;99.90
55648;DHT22;45266;48.756;9.246;2023-08-01T00:52:17;17.40;99.90
55648;DHT22;45266;48.756;9.246;2023-08-01T00:53:19;17.40;99.90
55648;DHT22;45266;48.756;9.246;2023-08-01T00:54:21;17.40;99.90
55648;DHT22;45266;48.756;9.246;2023-08-01T00:55:24;17.30;99.90
55648;DHT22;45266;48.756;9.246;2023-08-01T00:56:27;17.40;99.90
55648;DHT22;45266;48.756;9.246;2023-08-01T00:57:29;17.30;99.90
55648;DHT22;45266;48.756;9.246;2023-08-01T00:58:31;17.40;99.90
55648;DHT22;45266;48.756;9.246;2023-08-01T00:59:34;17.40;99.90
55648;DHT22;45266;48.756;9.246;2023-08-01T01:00:36;17.40;99.90
55648;DHT22;45266;48.756;9.246;2023-08-01T01:01:43;17.40;99.90
55648;DHT22;45266;48.756;9.246;2023-08-01T01:02:55;17.40;99.90
55648;DHT22;45266;48.756;9.246;2023-08-01T01:04:05;17.40;99.90
55648;DHT22;45266;48.756;9.246;2023-08-01T01:05:12;17.40;99.90
55648;DHT22;45266;48.756;9.246;2023-08-01T01:06:32;17.40;99.90
55648;DHT22;45266;48.756;9.246;2023-08-01T01:07:41;17.40;99.90
55648;DHT22;45266;48.756;9.246;2023-08-01T01:08:51;17.40;99.90
55648;DHT22;45266;48.756;9.246;2023-08-01T01:09:53;17.40;99.90
55648;DHT22;45266;48.756;9.246;2023-08-01T01:10:55;17.40;99.90
55648;DHT22;45266;48.756;9.246;2023-08-01T01:11:58;17.40;99.90
55648;DHT22;45266;48.756;9.246;2023-08-01T01:13:01;17.40;99.90
55648;DHT22;45266;48.756;9.246;2023-08-01T01:14:03;17.40;99.90
55648;DHT22;45266;48.756;9.246;2023-08-01T01:15:06;17.40;99.90
55648;DHT22;45266;48.756;9.246;2023-08-01T01:16:08;17.40;99.90
55648;DHT22;45266;48.756;9.246;2023-08-01T01:17:11;17.30;99.90
55648;DHT22;45266;48.756;9.246;2023-08-01T01:18:15;17.30;99.90
55648;DHT22;45266;48.756;9.246;2023-08-01T01:19:20;17.40;99.90
55648;DHT22;45266;48.756;9.246;2023-08-01T01:20:35;17.40;99.90
55648;DHT22;45266;48.756;9.246;2023-08-01T01:21:40;17.40;99.90
55648;DHT22;45266;48.756;9.246;2023-08-01T01:22:43;17.30;99.90
55648;DHT22;45266;48.756;9.246;2023-08-01T01:23:46;17.30;99.90
55648;DHT22;45266;48.756;9.246;2023-08-01T01:24:50;17.30;99.90
55648;DHT22;45266;48.756;9.246;2023-08-01T01:25:54;17.30;99.90
55648;DHT22;45266;48.756;9.246;2023-08-01T01:27:02;17.30;99.90
55648;DHT22;45266;48.756;9.246;2023-08-01T01:28:08;17.30;99.90
55648;DHT22;45266;48.756;9.246;2023-08-01T01:29:15;17.30;99.90
55648;DHT22;45266;48.756;9.246;2023-08-01T01:30:23;17.30;99.90
55648;DHT22;45266;48.756;9.246;2023-08-01T01:31:30;17.30;99.90
55648;DHT22;45266;48.756;9.246;2023-08-01T01:32:34;17.20;99.90
55648;DHT22;45266;48.756;9.246;2023-08-01T01:33:37;17.30;99.90
55648;DHT22;45266;48.756;9.246;2023-08-01T01:34:39;17.30;99.90
55648;DHT22;45266;48.756;9.246;2023-08-01T01:35:41;17.30;99.90
55648;DHT22;45266;48.756;9.246;2023-08-01T01:36:43;17.30;99.90
55648;DHT22;45266;48.756;9.246;2023-08-01T01:37:46;17.30;99.90
55648;DHT22;45266;48.756;9.246;2023-08-01T01:38:49;17.30;99.90
55648;DHT22;45266;48.756;9.246;2023-08-01T01:39:53;17.20;99.90
55648;DHT22;45266;48.756;9.246;2023-08-01T01:40:58;17.20;99.90
55648;DHT22;45266;48.756;9.246;2023-08-01T01:42:00;17.20;99.90
55648;DHT22;45266;48.756;9.246;2023-08-01T01:43:02;17.20;99.90
55648;DHT22;45266;48.756;9.246;2023-08-01T01:44:04;17.20;99.90
55648;DHT22;45266;48.756;9.246;2023-08-01T01:45:06;17.20;99.90
55648;DHT22;45266;48.756;9.246;2023-08-01T01:46:08;17.20;99.90
55648;DHT22;45266;48.756;9.246;2023-08-01T01:47:10;17.20;99.90
55648;DHT22;45266;48.756;9.246;2023-08-01T01:48:12;17.20;99.90
55648;DHT22;45266;48.756;9.246;2023-08-01T01:49:17;17.20;99.90
55648;DHT22;45266;48.756;9.246;2023-08-01T01:50:33;17.20;99.90
55648;DHT22;45266;48.756;9.246;2023-08-01T01:51:37;17.20;99.90
55648;DHT22;45266;48.756;9.246;2023-08-01T01:52:40;17.20;99.90
55648;DHT22;45266;48.756;9.246;2023-08-01T01:53:43;17.20;99.90
55648;DHT22;45266;48.756;9.246;2023-08-01T01:54:45;17.10;99.90
55648;DHT22;45266;48.756;9.246;2023-08-01T01:55:47;17.10;99.90
55648;DHT22;45266;48.756;9.246;2023-08-01T01:56:49;17.10;99.90
55648;DHT22;45266;48.756;9.246;2023-08-01T01:57:51;17.10;99.90
55648;DHT22;45266;48.756;9.246;2023-08-01T01:58:53;17.10;99.90
55648;DHT22;45266;48.756;9.246;2023-08-01T01:59:55;17.10;99.90
55648;DHT22;45266;48.756;9.246;2023-08-01T02:00:57;17.10;99.90
55648;DHT22;45266;48.756;9.246;2023-08-01T02:01:59;17.10;99.90
55648;DHT22;45266;48.756;9.246;2023-08-01T02:03:03;17.20;99.90
55648;DHT22;45266;48.756;9.246;2023-08-01T02:04:11;17.10;99.90
55648;DHT22;45266;48.756;9.246;2023-08-01T02:05:13;17.20;99.90
55648;DHT22;45266;48.756;9.246;2023-08-01T02:06:15;17.10;99.90
55648;DHT22;45266;48.756;9.246;2023-08-01T02:07:17;17.10;99.90
55648;DHT22;45266;48.756;9.246;2023-08-01T02:08:22;17.10;99.90
55648;DHT22;45266;48.756;9.246;2023-08-01T02:09:30;17.10;99.90
55648;DHT22;45266;48.756;9.246;2023-08-01T02:10:34;17.10;99.90
55648;DHT22;45266;48.756;9.246;2023-08-01T02:11:36;17.10;99.90
55648;DHT22;45266;48.756;9.246;2023-08-01T02:12:40;17.10;99.90
55648;DHT22;45266;48.756;9.246;2023-08-01T02:13:47;17.10;99.90
55648;DHT22;45266;48.756;9.246;2023-08-01T02:14:51;17.10;99.90
55648;DHT22;45266;48.756;9.246;2023-08-01T02:15:54;17.10;99.90
55648;DHT22;45266;48.756;9.246;2023-08-01T02:17:01;17.10;99.90
55648;DHT22;45266;48.756;9.246;2023-08-01T02:18:17;17.10;99.90
55648;DHT22;45266;48.756;9.246;2023-08-01T02:19:28;17.10;99.90
55648;DHT22;45266;48.756;9.246;2023-08-01T02:20:31;17.10;99.90
55648;DHT22;45266;48.756;9.246;2023-08-01T02:21:36;17.20;99.90
55648;DHT22;45266;48.756;9.246;2023-08-01T02:22:42;17.10;99.90
55648;DHT22;45266;48.756;9.246;2023-08-01T02:23:52;17.10;99.90
55648;DHT22;45266;48.756;9.246;2023-08-01T02:24:57;17.10;99.90
55648;DHT22;45266;48.756;9.246;2023-08-01T02:26:02;17.10;99.90
55648;DHT22;45266;48.756;9.246;2023-08-01T02:27:06;17.10;99.90
55648;DHT22;45266;48.756;9.246;2023-08-01T02:28:09;17.10;99.90
55648;DHT22;45266;48.756;9.246;2023-08-01T02:29:11;17.10;99.90
55648;DHT22;45266;48.756;9.246;2023-08-01T02:30:13;17.10;99.90
55648;DHT22;45266;48.756;9.246;2023-08-01T02:31:16;17.10;99.90
55648;DHT22;45266;48.756;9.246;2023-08-01T02:32:26;17.10;99.90
55648;DHT22;45266;48.756;9.246;2023-08-01T02:33:31;17.10;99.90
55648;DHT22;45266;48.756;9.246;2023-08-01T02:34:33;17.10;99.90
55648;DHT22;45266;48.756;9.246;2023-08-01T02:35:39;17.10;99.90
55648;DHT22;45266;48.756;9.246;2023-08-01T02:36:51;17.20;99.90
55648;DHT22;45266;48.756;9.246;2023-08-01T02:37:56;17.20;99.90
55648;DHT22;45266;48.756;9.246;2023-08-01T02:39:01;17.20;99.90
55648;DHT22;45266;48.756;9.246;2023-08-01T02:40:08;17.10;99.90
55648;DHT22;45266;48.756;9.246;2023-08-01T02:41:10;17.20;99.90
55648;DHT22;45266;48.756;9.246;2023-08-01T02:42:12;17.10;99.90
55648;DHT22;45266;48.756;9.246;2023-08-01T02:43:20;17.10;99.90
55648;DHT22;45266;48.756;9.246;2023-08-01T02:44:26;17.10;99.90
55648;DHT22;45266;48.756;9.246;2023-08-01T02:45:30;17.10;99.90
55648;DHT22;45266;48.756;9.246;2023-08-01T02:46:33;17.10;99.90
55648;DHT22;45266;48.756;9.246;2023-08-01T02:47:38;17.10;99.90
55648;DHT22;45266;48.756;9.246;2023-08-01T02:48:42;17.10;99.90
55648;DHT22;45266;48.756;9.246;2023-08-01T02:49:44;17.10;99.90
55648;DHT22;45266;48.756;9.246;2023-08-01T02:50:50;17.10;99.90
55648;DHT22;45266;48.756;9.246;2023-08-01T02:51:59;17.10;99.90
55648;DHT22;45266;48.756;9.246;2023-08-01T02:53:04;17.10;99.90
55648;DHT22;45266;48.756;9.246;2023-08-01T02:54:10;17.10;99.90
55648;DHT22;45266;48.756;9.246;2023-08-01T02:55:22;17.10;99.90
55648;DHT22;45266;48.756;9.246;2023-08-01T02:56:36;17.10;99.90
55648;DHT22;45266;48.756;9.246;2023-08-01T02:57:49;17.10;99.90
55648;DHT22;45266;48.756;9.246;2023-08-01T02:58:53;17.10;99.90
55648;DHT22;45266;48.756;9.246;2023-08-01T02:59:57;17.10;99.90
55648;DHT22;45266;48.756;9.246;2023-08-01T03:01:01;17.10;99.90
55648;DHT22;45266;48.756;9.246;2023-08-01T03:02:03;17.10;99.90
55648;DHT22;45266;48.756;9.246;2023-08-01T03:03:05;17.10;99.90
55648;DHT22;45266;48.756;9.246;2023-08-01T03:04:08;17.10;99.90
55648;DHT22;45266;48.756;9.246;2023-08-01T03:05:10;17.10;99.90
55648;DHT22;45266;48.756;9.246;2023-08-01T03:06:12;17.10;99.90
55648;DHT22;45266;48.756;9.246;2023-08-01T03:07:15;17.10;99.90
55648;DHT22;45266;48.756;9.246;2023-08-01T03:08:21;17.10;99.90
55648;DHT22;45266;48.756;9.246;2023-08-01T03:09:29;17.10;99.90
55648;DHT22;45266;48.756;9.246;2023-08-01T03:10:40;17.10;99.90
55648;DHT22;45266;48.756;9.246;2023-08-01T03:11:47;17.10;99.90
55648;DHT22;45266;48.756;9.246;2023-08-01T03:12:53;17.10;99.90
55648;DHT22;45266;48.756;9.246;2023-08-01T03:13:55;17.10;99.90
55648;DHT22;45266;48.756;9.246;2023-08-01T03:14:57;17.10;99.90
55648;DHT22;45266;48.756;9.246;2023-08-01T03:15:59;17.10;99.90
55648;DHT22;45266;48.756;9.246;2023-08-01T03:17:01;17.10;99.90
55648;DHT22;45266;48.756;9.246;2023-08-01T03:18:03;17.10;99.90
55648;DHT22;45266;48.756;9.246;2023-08-01T03:19:06;17.10;99.90
55648;DHT22;45266;48.756;9.246;2023-08-01T03:20:10;17.10;99.90
55648;DHT22;45266;48.756;9.246;2023-08-01T03:21:14;17.10;99.90
55648;DHT22;45266;48.756;9.246;2023-08-01T03:22:17;17.10;99.90
55648;DHT22;45266;48.756;9.246;2023-08-01T03:23:22;17.10;99.90
55648;DHT22;45266;48.756;9.246;2023-08-01T03:24:33;17.10;99.90
55648;DHT22;45266;48.756;9.246;2023-08-01T03:25:44;17.10;99.90
55648;DHT22;45266;48.756;9.246;2023-08-01T03:26:56;17.00;99.90
55648;DHT22;45266;48.756;9.246;2023-08-01T03:28:06;17.10;99.90
55648;DHT22;45266;48.756;9.246;2023-08-01T03:29:08;17.10;99.90
55648;DHT22;45266;48.756;9.246;2023-08-01T03:30:15;17.20;99.90
55648;DHT22;45266;48.756;9.246;2023-08-01T03:31:28;17.10;99.90
55648;DHT22;45266;48.756;9.246;2023-08-01T03:32:43;17.10;99.90
55648;DHT22;45266;48.756;9.246;2023-08-01T03:33:49;17.10;99.90
55648;DHT22;45266;48.756;9.246;2023-08-01T03:34:51;17.10;99.90
55648;DHT22;45266;48.756;9.246;2023-08-01T03:35:59;17.10;99.90
55648;DHT22;45266;48.756;9.246;2023-08-01T03:37:09;17.10;99.90
55648;DHT22;45266;48.756;9.246;2023-08-01T03:38:12;17.10;99.90
55648;DHT22;45266;48.756;9.246;2023-08-01T03:39:15;17.10;99.90
55648;DHT22;45266;48.756;9.246;2023-08-01T03:40:17;17.10;99.90
55648;DHT22;45266;48.756;9.246;2023-08-01T03:41:22;17.10;99.90
55648;DHT22;45266;48.756;9.246;2023-08-01T03:42:24;17.10;99.90
55648;DHT22;45266;48.756;9.246;2023-08-01T03:43:27;17.10;99.90
55648;DHT22;45266;48.756;9.246;2023-08-01T03:44:29;17.10;99.90
55648;DHT22;45266;48.756;9.246;2023-08-01T03:45:32;17.10;99.90
55648;DHT22;45266;48.756;9.246;2023-08-01T03:46:35;17.10;99.90
55648;DHT22;45266;48.756;9.246;2023-08-01T03:47:37;17.10;99.90
55648;DHT22;45266;48.756;9.246;2023-08-01T03:48:40;17.10;99.90
55648;DHT22;45266;48.756;9.246;2023-08-01T03:49:42;17.10;99.90
55648;DHT22;45266;48.756;9.246;2023-08-01T03:50:45;17.10;99.90
55648;DHT22;45266;48.756;9.246;2023-08-01T03:51:47;17.10;99.90
55648;DHT22;45266;48.756;9.246;2023-08-01T03:52:50;17.10;99.90
55648;DHT22;45266;48.756;9.246;2023-08-01T03:53:53;17.10;99.90
55648;DHT22;45266;48.756;9.246;2023-08-01T03:55:13;17.10;99.90
55648;DHT22;45266;48.756;9.246;2023-08-01T03:56:16;17.00;99.90
55648;DHT22;45266;48.756;9.246;2023-08-01T03:57:18;17.00;99.90
55648;DHT22;45266;48.756;9.246;2023-08-01T03:58:27;17.00;99.90
55648;DHT22;45266;48.756;9.246;2023-08-01T03:59:29;17.00;99.90
55648;DHT22;45266;48.756;9.246;2023-08-01T04:00:33;17.00;99.90
55648;DHT22;45266;48.756;9.246;2023-08-01T04:01:38;17.00;99.90
55648;DHT22;45266;48.756;9.246;2023-08-01T04:02:43;17.00;99.90
55648;DHT22;45266;48.756;9.246;2023-08-01T04:03:49;17.00;99.90
55648;DHT22;45266;48.756;9.246;2023-08-01T04:04:51;16.90;99.90
55648;DHT22;45266;48.756;9.246;2023-08-01T04:05:54;17.00;99.90
55648;DHT22;45266;48.756;9.246;2023-08-01T04:06:56;17.00;99.90
55648;DHT22;45266;48.756;9.246;2023-08-01T04:07:59;17.00;99.90
55648;DHT22;45266;48.756;9.246;2023-08-01T04:09:01;17.00;99.90
55648;DHT22;45266;48.756;9.246;2023-08-01T04:10:04;17.00;99.90
55648;DHT22;45266;48.756;9.246;2023-08-01T04:11:07;17.00;99.90
55648;DHT22;45266;48.756;9.246;2023-08-01T04:12:21;17.10;99.90
55648;DHT22;45266;48.756;9.246;2023-08-01T04:13:23;17.00;99.90
55648;DHT22;45266;48.756;9.246;2023-08-01T04:14:25;17.00;99.90
55648;DHT22;45266;48.756;9.246;2023-08-01T04:15:30;17.00;99.90
55648;DHT22;45266;48.756;9.246;2023-08-01T04:16:42;17.00;99.90
55648;DHT22;45266;48.756;9.246;2023-08-01T04:17:53;17.10;99.90
55648;DHT22;45266;48.756;9.246;2023-08-01T04:18:56;17.10;99.90
55648;DHT22;45266;48.756;9.246;2023-08-01T04:19:58;17.20;99.90
55648;DHT22;45266;48.756;9.246;2023-08-01T04:21:04;17.20;99.90
55648;DHT22;45266;48.756;9.246;2023-08-01T04:22:10;17.30;99.90
55648;DHT22;45266;48.756;9.246;2023-08-01T04:23:12;17.30;99.90
55648;DHT22;45266;48.756;9.246;2023-08-01T04:24:14;17.30;99.90
55648;DHT22;45266;48.756;9.246;2023-08-01T04:25:16;17.40;99.90
55648;DHT22;45266;48.756;9.246;2023-08-01T04:26:19;17.50;99.90
55648;DHT22;45266;48.756;9.246;2023-08-01T04:27:21;17.50;99.90
55648;DHT22;45266;48.756;9.246;2023-08-01T04:28:23;17.50;99.90
55648;DHT22;45266;48.756;9.246;2023-08-01T04:29:25;17.50;99.90
55648;DHT22;45266;48.756;9.246;2023-08-01T04:30:28;17.60;99.90
55648;DHT22;45266;48.756;9.246;2023-08-01T04:31:33;17.60;99.90
55648;DHT22;45266;48.756;9.246;2023-08-01T04:32:35;17.60;99.90
55648;DHT22;45266;48.756;9.246;2023-08-01T04:33:46;17.60;99.90
55648;DHT22;45266;48.756;9.246;2023-08-01T04:34:49;17.60;99.90
55648;DHT22;45266;48.756;9.246;2023-08-01T04:35:51;17.70;99.90
55648;DHT22;45266;48.756;9.246;2023-08-01T04:36:53;17.60;99.90
55648;DHT22;45266;48.756;9.246;2023-08-01T04:37:59;17.60;99.90
55648;DHT22;45266;48.756;9.246;2023-08-01T04:39:08;17.60;99.90
55648;DHT22;45266;48.756;9.246;2023-08-01T04:40:13;17.60;99.90
55648;DHT22;45266;48.756;9.246;2023-08-01T04:41:21;17.60;99.90
55648;DHT22;45266;48.756;9.246;2023-08-01T04:42:32;17.60;99.90
55648;DHT22;45266;48.756;9.246;2023-08-01T04:43:36;17.70;99.90
55648;DHT22;45266;48.756;9.246;2023-08-01T04:44:39;17.70;99.90
55648;DHT22;45266;48.756;9.246;2023-08-01T04:45:42;17.60;99.90
55648;DHT22;45266;48.756;9.246;2023-08-01T04:46:47;17.60;99.90
55648;DHT22;45266;48.756;9.246;2023-08-01T04:47:53;17.60;99.90
55648;DHT22;45266;48.756;9.246;2023-08-01T04:48:58;17.60;99.90
55648;DHT22;45266;48.756;9.246;2023-08-01T04:50:01;17.60;99.90
55648;DHT22;45266;48.756;9.246;2023-08-01T04:51:04;17.60;99.90
55648;DHT22;45266;48.756;9.246;2023-08-01T04:52:07;17.60;99.90
55648;DHT22;45266;48.756;9.246;2023-08-01T04:53:15;17.70;99.90
55648;DHT22;45266;48.756;9.246;2023-08-01T04:54:26;17.60;99.90
55648;DHT22;45266;48.756;9.246;2023-08-01T04:55:29;17.80;99.90
55648;DHT22;45266;48.756;9.246;2023-08-01T04:56:33;17.80;99.90
55648;DHT22;45266;48.756;9.246;2023-08-01T04:57:43;17.90;99.90
55648;DHT22;45266;48.756;9.246;2023-08-01T04:58:58;17.90;99.90
55648;DHT22;45266;48.756;9.246;2023-08-01T05:00:11;18.00;99.90
55648;DHT22;45266;48.756;9.246;2023-08-01T05:01:16;18.00;99.90
55648;DHT22;45266;48.756;9.246;2023-08-01T05:02:25;18.00;99.90
55648;DHT22;45266;48.756;9.246;2023-08-01T05:03:27;18.00;99.90
55648;DHT22;45266;48.756;9.246;2023-08-01T05:04:32;18.00;99.90
55648;DHT22;45266;48.756;9.246;2023-08-01T05:05:46;18.00;99.90
55648;DHT22;45266;48.756;9.246;2023-08-01T05:06:58;18.00;99.90
55648;DHT22;45266;48.756;9.246;2023-08-01T05:08:12;18.00;99.90
55648;DHT22;45266;48.756;9.246;2023-08-01T05:09:14;17.90;99.90
55648;DHT22;45266;48.756;9.246;2023-08-01T05:10:16;17.90;99.90
55648;DHT22;45266;48.756;9.246;2023-08-01T05:11:20;17.90;99.90
55648;DHT22;45266;48.756;9.246;2023-08-01T05:12:28;17.90;99.90
55648;DHT22;45266;48.756;9.246;2023-08-01T05:13:39;17.90;99.90
55648;DHT22;45266;48.756;9.246;2023-08-01T05:14:51;17.90;99.90
55648;DHT22;45266;48.756;9.246;2023-08-01T05:16:09;17.90;99.90
55648;DHT22;45266;48.756;9.246;2023-08-01T05:17:11;17.80;99.90
55648;DHT22;45266;48.756;9.246;2023-08-01T05:18:19;17.80;99.90
55648;DHT22;45266;48.756;9.246;2023-08-01T05:19:29;17.80;99.90
55648;DHT22;45266;48.756;9.246;2023-08-01T05:20:35;17.70;99.90
55648;DHT22;45266;48.756;9.246;2023-08-01T05:21:37;17.70;99.90
55648;DHT22;45266;48.756;9.246;2023-08-01T05:22:40;17.70;99.90
55648;DHT22;45266;48.756;9.246;2023-08-01T05:23:49;17.60;99.90
55648;DHT22;45266;48.756;9.246;2023-08-01T05:24:58;17.60;99.90
55648;DHT22;45266;48.756;9.246;2023-08-01T05:26:05;17.50;99.90
55648;DHT22;45266;48.756;9.246;2023-08-01T05:27:12;17.50;99.90
55648;DHT22;45266;48.756;9.246;2023-08-01T05:28:17;17.40;99.90
55648;DHT22;45266;48.756;9.246;2023-08-01T05:29:21;17.40;99.90
55648;DHT22;45266;48.756;9.246;2023-08-01T05:30:25;17.40;99.90
55648;DHT22;45266;48.756;9.246;2023-08-01T05:31:32;17.30;99.90
55648;DHT22;45266;48.756;9.246;2023-08-01T05:32:42;17.30;99.90
55648;DHT22;45266;48.756;9.246;2023-08-01T05:33:48;17.20;99.90
55648;DHT22;45266;48.756;9.246;2023-08-01T05:34:54;17.30;99.90
55648;DHT22;45266;48.756;9.246;2023-08-01T05:35:58;17.30;99.90
55648;DHT22;45266;48.756;9.246;2023-08-01T05:37:00;17.30;99.90
55648;DHT22;45266;48.756;9.246;2023-08-01T05:38:05;17.30;99.90
55648;DHT22;45266;48.756;9.246;2023-08-01T05:39:12;17.30;99.90
55648;DHT22;45266;48.756;9.246;2023-08-01T05:40:16;17.30;99.90
55648;DHT22;45266;48.756;9.246;2023-08-01T05:41:23;17.30;99.90
55648;DHT22;45266;48.756;9.246;2023-08-01T05:42:30;17.30;99.90
55648;DHT22;45266;48.756;9.246;2023-08-01T05:43:35;17.30;99.90
55648;DHT22;45266;48.756;9.246;2023-08-01T05:44:40;17.20;99.90
55648;DHT22;45266;48.756;9.246;2023-08-01T05:45:53;17.30;99.90
55648;DHT22;45266;48.756;9.246;2023-08-01T05:47:03;17.30;99.90
55648;DHT22;45266;48.756;9.246;2023-08-01T05:48:10;17.30;99.90
55648;DHT22;45266;48.756;9.246;2023-08-01T05:49:22;17.30;99.90
55648;DHT22;45266;48.756;9.246;2023-08-01T05:50:27;17.30;99.90
55648;DHT22;45266;48.756;9.246;2023-08-01T05:51:33;17.30;99.90
55648;DHT22;45266;48.756;9.246;2023-08-01T05:52:38;17.20;99.90
55648;DHT22;45266;48.756;9.246;2023-08-01T05:53:41;17.20;99.90
55648;DHT22;45266;48.756;9.246;2023-08-01T05:54:44;17.30;99.90
55648;DHT22;45266;48.756;9.246;2023-08-01T05:55:48;17.40;99.90
55648;DHT22;45266;48.756;9.246;2023-08-01T05:56:52;17.30;99.90
55648;DHT22;45266;48.756;9.246;2023-08-01T05:57:58;17.30;99.90
55648;DHT22;45266;48.756;9.246;2023-08-01T05:59:00;17.30;99.90
55648;DHT22;45266;48.756;9.246;2023-08-01T06:00:04;17.30;99.90
55648;DHT22;45266;48.756;9.246;2023-08-01T06:01:10;17.30;99.90
55648;DHT22;45266;48.756;9.246;2023-08-01T06:02:15;17.30;99.90
55648;DHT22;45266;48.756;9.246;2023-08-01T06:03:20;17.40;99.90
55648;DHT22;45266;48.756;9.246;2023-08-01T06:04:24;17.40;99.90
55648;DHT22;45266;48.756;9.246;2023-08-01T06:05:26;17.40;99.90
55648;DHT22;45266;48.756;9.246;2023-08-01T06:06:32;17.40;99.90
55648;DHT22;45266;48.756;9.246;2023-08-01T06:07:48;17.40;99.90
55648;DHT22;45266;48.756;9.246;2023-08-01T06:09:03;17.40;99.90
55648;DHT22;45266;48.756;9.246;2023-08-01T06:10:16;17.50;99.90
55648;DHT22;45266;48.756;9.246;2023-08-01T06:11:21;17.50;99.90
55648;DHT22;45266;48.756;9.246;2023-08-01T06:12:25;17.50;99.90
55648;DHT22;45266;48.756;9.246;2023-08-01T06:13:30;17.50;99.90
55648;DHT22;45266;48.756;9.246;2023-08-01T06:14:37;17.50;99.90
55648;DHT22;45266;48.756;9.246;2023-08-01T06:15:42;17.50;99.90
55648;DHT22;45266;48.756;9.246;2023-08-01T06:16:47;17.50;99.90
55648;DHT22;45266;48.756;9.246;2023-08-01T06:17:52;17.50;99.90
55648;DHT22;45266;48.756;9.246;2023-08-01T06:18:59;17.50;99.90
55648;DHT22;45266;48.756;9.246;2023-08-01T06:20:10;17.50;99.90
55648;DHT22;45266;48.756;9.246;2023-08-01T06:21:25;17.60;99.90
55648;DHT22;45266;48.756;9.246;2023-08-01T06:22:41;17.50;99.90
55648;DHT22;45266;48.756;9.246;2023-08-01T06:23:56;17.50;99.90
55648;DHT22;45266;48.756;9.246;2023-08-01T06:25:10;17.50;99.90
55648;DHT22;45266;48.756;9.246;2023-08-01T06:26:23;17.50;99.90
55648;DHT22;45266;48.756;9.246;2023-08-01T06:27:29;17.60;99.90
55648;DHT22;45266;48.756;9.246;2023-08-01T06:28:33;17.60;99.90
55648;DHT22;45266;48.756;9.246;2023-08-01T06:29:36;17.60;99.90
55648;DHT22;45266;48.756;9.246;2023-08-01T06:30:41;17.60;99.90
55648;DHT22;45266;48.756;9.246;2023-08-01T06:31:44;17.60;99.90
55648;DHT22;45266;48.756;9.246;2023-08-01T06:32:46;17.60;99.90
55648;DHT22;45266;48.756;9.246;2023-08-01T06:33:52;17.60;99.90
55648;DHT22;45266;48.756;9.246;2023-08-01T06:35:10;17.60;99.90
55648;DHT22;45266;48.756;9.246;2023-08-01T06:36:23;17.60;99.90
55648;DHT22;45266;48.756;9.246;2023-08-01T06:37:25;17.50;99.90
55648;DHT22;45266;48.756;9.246;2023-08-01T06:38:28;17.50;99.90
55648;DHT22;45266;48.756;9.246;2023-08-01T06:39:35;17.40;99.90
55648;DHT22;45266;48.756;9.246;2023-08-01T06:40:41;17.50;99.90
55648;DHT22;45266;48.756;9.246;2023-08-01T06:41:49;17.50;99.90
55648;DHT22;45266;48.756;9.246;2023-08-01T06:43:01;17.50;99.90
55648;DHT22;45266;48.756;9.246;2023-08-01T06:44:12;17.50;99.90
55648;DHT22;45266;48.756;9.246;2023-08-01T06:45:17;17.50;99.90
55648;DHT22;45266;48.756;9.246;2023-08-01T06:46:19;17.60;99.90
55648;DHT22;45266;48.756;9.246;2023-08-01T06:47:26;17.50;99.90
55648;DHT22;45266;48.756;9.246;2023-08-01T06:48:42;17.50;99.90
55648;DHT22;45266;48.756;9.246;2023-08-01T06:49:56;17.50;99.90
55648;DHT22;45266;48.756;9.246;2023-08-01T06:51:08;17.50;99.90
55648;DHT22;45266;48.756;9.246;2023-08-01T06:52:21;17.50;99.90
55648;DHT22;45266;48.756;9.246;2023-08-01T06:53:25;17.40;99.90